sensor_id;sensor_type;location;lat;lon;timestamp;P1;durP1;ratioP1;P2;durP2;ratioP2
75220;SDS011;63802;53.232;6.570;2022-11-18T00:02:19;24.95;;;10.20;;
75220;SDS011;63802;53.232;6.570;2022-11-18T00:04:45;25.08;;;10.88;;
75220;SDS011;63802;53.232;6.570;2022-11-18T00:07:11;24.10;;;11.32;;
75220;SDS011;63802;53.232;6.570;2022-11-18T00:09:36;26.45;;;10.60;;
75220;SDS011;63802;53.232;6.570;2022-11-18T00:12:02;24.13;;;10.88;;
75220;SDS011;63802;53.232;6.570;2022-11-18T00:14:46;22.08;;;9.93;;
75220;SDS011;63802;53.232;6.570;2022-11-18T00:17:12;22.58;;;9.82;;
75220;SDS011;63802;53.232;6.570;2022-11-18T00:19:38;24.08;;;10.77;;
75220;SDS011;63802;53.232;6.570;2022-11-18T00:22:05;23.58;;;10.75;;
75220;SDS011;63802;53.232;6.570;2022-11-18T00:24:32;21.38;;;9.98;;
75220;SDS011;63802;53.232;6.570;2022-11-18T00:26:57;21.90;;;9.40;;
75220;SDS011;63802;53.232;6.570;2022-11-18T00:29:23;21.23;;;9.95;;
75220;SDS011;63802;53.232;6.570;2022-11-18T00:31:52;24.10;;;10.75;;
75220;SDS011;63802;53.232;6.570;2022-11-18T00:34:18;23.88;;;10.35;;
75220;SDS011;63802;53.232;6.570;2022-11-18T00:36:44;22.20;;;9.80;;
75220;SDS011;63802;53.232;6.570;2022-11-18T00:39:11;22.65;;;10.25;;
75220;SDS011;63802;53.232;6.570;2022-11-18T00:41:39;24.00;;;10.32;;
75220;SDS011;63802;53.232;6.570;2022-11-18T00:44:22;24.88;;;10.52;;
75220;SDS011;63802;53.232;6.570;2022-11-18T00:46:48;26.58;;;10.85;;
75220;SDS011;63802;53.232;6.570;2022-11-18T00:49:13;28.13;;;11.35;;
75220;SDS011;63802;53.232;6.570;2022-11-18T00:51:39;25.88;;;10.75;;
75220;SDS011;63802;53.232;6.570;2022-11-18T00:54:04;25.30;;;10.57;;
75220;SDS011;63802;53.232;6.570;2022-11-18T00:59:20;27.55;;;11.38;;
75220;SDS011;63802;53.232;6.570;2022-11-18T01:01:45;23.50;;;9.68;;
75220;SDS011;63802;53.232;6.570;2022-11-18T01:04:10;24.48;;;10.60;;
75220;SDS011;63802;53.232;6.570;2022-11-18T01:06:36;25.17;;;9.38;;
75220;SDS011;63802;53.232;6.570;2022-11-18T01:09:01;24.45;;;10.95;;
75220;SDS011;63802;53.232;6.570;2022-11-18T01:11:27;26.73;;;10.38;;
75220;SDS011;63802;53.232;6.570;2022-11-18T01:14:11;25.02;;;11.00;;
75220;SDS011;63802;53.232;6.570;2022-11-18T01:16:37;22.85;;;9.15;;
75220;SDS011;63802;53.232;6.570;2022-11-18T01:19:02;26.90;;;10.10;;
75220;SDS011;63802;53.232;6.570;2022-11-18T01:21:28;23.73;;;10.20;;
75220;SDS011;63802;53.232;6.570;2022-11-18T01:23:53;23.42;;;10.05;;
75220;SDS011;63802;53.232;6.570;2022-11-18T01:26:19;23.88;;;10.88;;
75220;SDS011;63802;53.232;6.570;2022-11-18T01:28:44;24.60;;;10.48;;
75220;SDS011;63802;53.232;6.570;2022-11-18T01:31:11;27.67;;;11.93;;
75220;SDS011;63802;53.232;6.570;2022-11-18T01:33:38;24.83;;;10.38;;
75220;SDS011;63802;53.232;6.570;2022-11-18T01:36:04;26.58;;;11.50;;
75220;SDS011;63802;53.232;6.570;2022-11-18T01:38:47;28.05;;;10.82;;
75220;SDS011;63802;53.232;6.570;2022-11-18T01:41:13;31.02;;;10.63;;
75220;SDS011;63802;53.232;6.570;2022-11-18T01:46:13;23.45;;;9.90;;
75220;SDS011;63802;53.232;6.570;2022-11-18T01:48:38;28.38;;;11.02;;
75220;SDS011;63802;53.232;6.570;2022-11-18T01:51:05;27.05;;;11.02;;
75220;SDS011;63802;53.232;6.570;2022-11-18T01:53:39;23.48;;;10.32;;
75220;SDS011;63802;53.232;6.570;2022-11-18T01:56:16;26.95;;;11.13;;
75220;SDS011;63802;53.232;6.570;2022-11-18T02:01:18;24.83;;;10.60;;
75220;SDS011;63802;53.232;6.570;2022-11-18T02:03:44;25.13;;;10.43;;
75220;SDS011;63802;53.232;6.570;2022-11-18T02:06:10;26.15;;;10.20;;
75220;SDS011;63802;53.232;6.570;2022-11-18T02:08:38;26.23;;;10.48;;
75220;SDS011;63802;53.232;6.570;2022-11-18T02:11:08;28.92;;;11.30;;
75220;SDS011;63802;53.232;6.570;2022-11-18T02:13:55;27.50;;;10.63;;
75220;SDS011;63802;53.232;6.570;2022-11-18T02:16:21;28.50;;;11.13;;
75220;SDS011;63802;53.232;6.570;2022-11-18T02:18:59;29.73;;;11.38;;
75220;SDS011;63802;53.232;6.570;2022-11-18T02:21:35;30.25;;;10.73;;
75220;SDS011;63802;53.232;6.570;2022-11-18T02:24:20;26.58;;;10.85;;
75220;SDS011;63802;53.232;6.570;2022-11-18T02:29:25;30.95;;;11.43;;
75220;SDS011;63802;53.232;6.570;2022-11-18T02:32:11;27.83;;;10.80;;
75220;SDS011;63802;53.232;6.570;2022-11-18T02:40:12;25.30;;;9.70;;
75220;SDS011;63802;53.232;6.570;2022-11-18T02:42:53;27.58;;;10.70;;
75220;SDS011;63802;53.232;6.570;2022-11-18T02:45:24;27.73;;;10.85;;
75220;SDS011;63802;53.232;6.570;2022-11-18T02:47:51;26.98;;;10.80;;
75220;SDS011;63802;53.232;6.570;2022-11-18T02:50:20;33.90;;;11.75;;
75220;SDS011;63802;53.232;6.570;2022-11-18T02:52:52;28.25;;;10.02;;
75220;SDS011;63802;53.232;6.570;2022-11-18T02:55:21;25.10;;;10.18;;
75220;SDS011;63802;53.232;6.570;2022-11-18T02:57:51;25.83;;;10.27;;
75220;SDS011;63802;53.232;6.570;2022-11-18T03:00:17;25.02;;;10.32;;
75220;SDS011;63802;53.232;6.570;2022-11-18T03:02:44;27.60;;;10.60;;
75220;SDS011;63802;53.232;6.570;2022-11-18T03:08:01;26.00;;;10.77;;
75220;SDS011;63802;53.232;6.570;2022-11-18T03:10:36;28.80;;;11.27;;
75220;SDS011;63802;53.232;6.570;2022-11-18T03:13:20;24.23;;;10.20;;
75220;SDS011;63802;53.232;6.570;2022-11-18T03:16:11;28.08;;;11.13;;
75220;SDS011;63802;53.232;6.570;2022-11-18T03:18:41;25.48;;;10.25;;
75220;SDS011;63802;53.232;6.570;2022-11-18T03:21:20;26.92;;;9.57;;
75220;SDS011;63802;53.232;6.570;2022-11-18T03:26:38;26.30;;;10.07;;
75220;SDS011;63802;53.232;6.570;2022-11-18T03:29:12;26.33;;;10.10;;
75220;SDS011;63802;53.232;6.570;2022-11-18T03:31:46;27.63;;;9.52;;
75220;SDS011;63802;53.232;6.570;2022-11-18T03:36:44;27.05;;;10.13;;
75220;SDS011;63802;53.232;6.570;2022-11-18T03:39:14;22.45;;;9.38;;
75220;SDS011;63802;53.232;6.570;2022-11-18T03:41:45;25.23;;;9.20;;
75220;SDS011;63802;53.232;6.570;2022-11-18T03:44:26;23.77;;;9.07;;
75220;SDS011;63802;53.232;6.570;2022-11-18T03:46:56;23.95;;;9.68;;
75220;SDS011;63802;53.232;6.570;2022-11-18T03:49:30;23.27;;;9.05;;
75220;SDS011;63802;53.232;6.570;2022-11-18T03:52:01;21.92;;;9.10;;
75220;SDS011;63802;53.232;6.570;2022-11-18T03:54:34;22.10;;;9.25;;
75220;SDS011;63802;53.232;6.570;2022-11-18T03:57:07;26.20;;;9.00;;
75220;SDS011;63802;53.232;6.570;2022-11-18T03:59:43;24.92;;;9.43;;
75220;SDS011;63802;53.232;6.570;2022-11-18T04:02:14;23.35;;;9.25;;
75220;SDS011;63802;53.232;6.570;2022-11-18T04:04:44;24.88;;;10.30;;
75220;SDS011;63802;53.232;6.570;2022-11-18T04:09:52;24.00;;;9.77;;
75220;SDS011;63802;53.232;6.570;2022-11-18T04:12:21;25.25;;;9.38;;
75220;SDS011;63802;53.232;6.570;2022-11-18T04:14:50;24.70;;;9.60;;
75220;SDS011;63802;53.232;6.570;2022-11-18T04:17:19;20.10;;;8.43;;
75220;SDS011;63802;53.232;6.570;2022-11-18T04:19:46;25.50;;;10.23;;
75220;SDS011;63802;53.232;6.570;2022-11-18T04:22:12;21.40;;;8.68;;
75220;SDS011;63802;53.232;6.570;2022-11-18T04:24:38;22.67;;;9.52;;
75220;SDS011;63802;53.232;6.570;2022-11-18T04:27:05;23.55;;;9.43;;
75220;SDS011;63802;53.232;6.570;2022-11-18T04:29:31;22.45;;;8.82;;
75220;SDS011;63802;53.232;6.570;2022-11-18T04:31:58;20.58;;;8.48;;
75220;SDS011;63802;53.232;6.570;2022-11-18T04:34:24;26.95;;;10.63;;
75220;SDS011;63802;53.232;6.570;2022-11-18T04:36:50;22.98;;;9.15;;
75220;SDS011;63802;53.232;6.570;2022-11-18T04:39:15;25.90;;;9.40;;
75220;SDS011;63802;53.232;6.570;2022-11-18T04:41:42;26.67;;;9.32;;
75220;SDS011;63802;53.232;6.570;2022-11-18T04:44:27;23.52;;;9.30;;
75220;SDS011;63802;53.232;6.570;2022-11-18T04:46:54;23.65;;;9.48;;
75220;SDS011;63802;53.232;6.570;2022-11-18T04:49:24;23.90;;;10.43;;
75220;SDS011;63802;53.232;6.570;2022-11-18T04:54:17;21.92;;;8.70;;
75220;SDS011;63802;53.232;6.570;2022-11-18T04:56:43;23.20;;;7.97;;
75220;SDS011;63802;53.232;6.570;2022-11-18T04:59:09;20.42;;;9.27;;
75220;SDS011;63802;53.232;6.570;2022-11-18T05:01:37;27.02;;;8.73;;
75220;SDS011;63802;53.232;6.570;2022-11-18T05:04:03;20.33;;;8.77;;
75220;SDS011;63802;53.232;6.570;2022-11-18T05:06:30;21.35;;;8.52;;
75220;SDS011;63802;53.232;6.570;2022-11-18T05:08:56;22.27;;;8.68;;
75220;SDS011;63802;53.232;6.570;2022-11-18T05:11:23;20.77;;;8.30;;
75220;SDS011;63802;53.232;6.570;2022-11-18T05:14:07;19.00;;;7.45;;
75220;SDS011;63802;53.232;6.570;2022-11-18T05:16:32;21.80;;;8.10;;
75220;SDS011;63802;53.232;6.570;2022-11-18T05:18:58;22.27;;;9.05;;
75220;SDS011;63802;53.232;6.570;2022-11-18T05:21:23;20.52;;;8.38;;
75220;SDS011;63802;53.232;6.570;2022-11-18T05:23:52;20.45;;;8.73;;
75220;SDS011;63802;53.232;6.570;2022-11-18T05:26:17;23.85;;;8.70;;
75220;SDS011;63802;53.232;6.570;2022-11-18T05:28:42;19.73;;;7.85;;
75220;SDS011;63802;53.232;6.570;2022-11-18T05:31:09;23.38;;;8.13;;
75220;SDS011;63802;53.232;6.570;2022-11-18T05:33:36;19.92;;;8.40;;
75220;SDS011;63802;53.232;6.570;2022-11-18T05:36:03;18.70;;;8.55;;
75220;SDS011;63802;53.232;6.570;2022-11-18T05:38:33;23.90;;;8.95;;
75220;SDS011;63802;53.232;6.570;2022-11-18T05:40:59;26.73;;;8.10;;
75220;SDS011;63802;53.232;6.570;2022-11-18T05:43:24;26.25;;;9.20;;
75220;SDS011;63802;53.232;6.570;2022-11-18T05:45:50;21.20;;;7.85;;
75220;SDS011;63802;53.232;6.570;2022-11-18T05:48:16;23.40;;;8.25;;
75220;SDS011;63802;53.232;6.570;2022-11-18T05:50:44;25.27;;;8.40;;
75220;SDS011;63802;53.232;6.570;2022-11-18T05:53:11;27.45;;;10.07;;
75220;SDS011;63802;53.232;6.570;2022-11-18T05:55:39;25.83;;;8.55;;
75220;SDS011;63802;53.232;6.570;2022-11-18T05:58:11;23.98;;;7.85;;
75220;SDS011;63802;53.232;6.570;2022-11-18T06:00:36;21.10;;;8.43;;
75220;SDS011;63802;53.232;6.570;2022-11-18T06:03:02;31.63;;;8.80;;
75220;SDS011;63802;53.232;6.570;2022-11-18T06:05:36;21.20;;;8.10;;
75220;SDS011;63802;53.232;6.570;2022-11-18T06:08:01;24.00;;;8.07;;
75220;SDS011;63802;53.232;6.570;2022-11-18T06:10:28;22.65;;;8.00;;
75220;SDS011;63802;53.232;6.570;2022-11-18T06:12:57;23.48;;;9.32;;
75220;SDS011;63802;53.232;6.570;2022-11-18T06:15:28;24.77;;;8.98;;
75220;SDS011;63802;53.232;6.570;2022-11-18T06:18:06;30.40;;;8.70;;
75220;SDS011;63802;53.232;6.570;2022-11-18T06:20:35;24.88;;;8.93;;
75220;SDS011;63802;53.232;6.570;2022-11-18T06:23:04;23.03;;;8.13;;
75220;SDS011;63802;53.232;6.570;2022-11-18T06:25:29;21.50;;;8.82;;
75220;SDS011;63802;53.232;6.570;2022-11-18T06:27:56;25.10;;;8.52;;
75220;SDS011;63802;53.232;6.570;2022-11-18T06:30:24;26.35;;;9.13;;
75220;SDS011;63802;53.232;6.570;2022-11-18T06:32:49;26.35;;;9.05;;
75220;SDS011;63802;53.232;6.570;2022-11-18T06:35:15;25.50;;;9.48;;
75220;SDS011;63802;53.232;6.570;2022-11-18T06:37:40;22.88;;;9.38;;
75220;SDS011;63802;53.232;6.570;2022-11-18T06:40:06;22.15;;;9.00;;
75220;SDS011;63802;53.232;6.570;2022-11-18T06:42:32;30.60;;;9.20;;
75220;SDS011;63802;53.232;6.570;2022-11-18T06:45:16;25.40;;;8.35;;
75220;SDS011;63802;53.232;6.570;2022-11-18T06:47:42;28.73;;;9.25;;
75220;SDS011;63802;53.232;6.570;2022-11-18T06:50:07;28.33;;;10.02;;
75220;SDS011;63802;53.232;6.570;2022-11-18T06:52:33;20.33;;;7.88;;
75220;SDS011;63802;53.232;6.570;2022-11-18T06:54:59;24.95;;;8.43;;
75220;SDS011;63802;53.232;6.570;2022-11-18T06:57:24;26.27;;;8.75;;
75220;SDS011;63802;53.232;6.570;2022-11-18T06:59:50;30.17;;;8.95;;
75220;SDS011;63802;53.232;6.570;2022-11-18T07:02:16;19.42;;;8.32;;
75220;SDS011;63802;53.232;6.570;2022-11-18T07:04:43;24.35;;;8.73;;
75220;SDS011;63802;53.232;6.570;2022-11-18T07:07:09;25.85;;;9.07;;
75220;SDS011;63802;53.232;6.570;2022-11-18T07:09:35;33.83;;;9.57;;
75220;SDS011;63802;53.232;6.570;2022-11-18T07:12:01;29.38;;;9.75;;
75220;SDS011;63802;53.232;6.570;2022-11-18T07:14:27;32.28;;;10.63;;
75220;SDS011;63802;53.232;6.570;2022-11-18T07:16:52;29.80;;;9.57;;
75220;SDS011;63802;53.232;6.570;2022-11-18T07:19:18;31.77;;;10.88;;
75220;SDS011;63802;53.232;6.570;2022-11-18T07:21:43;31.00;;;10.50;;
75220;SDS011;63802;53.232;6.570;2022-11-18T07:24:10;28.13;;;9.43;;
75220;SDS011;63802;53.232;6.570;2022-11-18T07:26:38;36.92;;;10.55;;
75220;SDS011;63802;53.232;6.570;2022-11-18T07:29:03;32.92;;;10.50;;
75220;SDS011;63802;53.232;6.570;2022-11-18T07:31:29;36.58;;;11.80;;
75220;SDS011;63802;53.232;6.570;2022-11-18T07:34:01;34.95;;;11.15;;
75220;SDS011;63802;53.232;6.570;2022-11-18T07:36:27;31.77;;;11.57;;
75220;SDS011;63802;53.232;6.570;2022-11-18T07:38:53;31.52;;;11.70;;
75220;SDS011;63802;53.232;6.570;2022-11-18T07:41:20;33.97;;;11.65;;
75220;SDS011;63802;53.232;6.570;2022-11-18T07:43:49;31.80;;;12.15;;
75220;SDS011;63802;53.232;6.570;2022-11-18T07:48:41;34.97;;;11.05;;
75220;SDS011;63802;53.232;6.570;2022-11-18T07:51:07;33.20;;;10.27;;
75220;SDS011;63802;53.232;6.570;2022-11-18T07:53:33;27.23;;;10.13;;
75220;SDS011;63802;53.232;6.570;2022-11-18T07:55:59;25.27;;;9.48;;
75220;SDS011;63802;53.232;6.570;2022-11-18T07:58:25;31.40;;;9.30;;
75220;SDS011;63802;53.232;6.570;2022-11-18T08:00:51;27.33;;;9.18;;
75220;SDS011;63802;53.232;6.570;2022-11-18T08:03:16;27.60;;;10.60;;
75220;SDS011;63802;53.232;6.570;2022-11-18T08:05:44;28.65;;;10.98;;
75220;SDS011;63802;53.232;6.570;2022-11-18T08:08:11;27.10;;;9.90;;
75220;SDS011;63802;53.232;6.570;2022-11-18T08:10:37;28.33;;;10.98;;
75220;SDS011;63802;53.232;6.570;2022-11-18T08:13:02;29.00;;;9.95;;
75220;SDS011;63802;53.232;6.570;2022-11-18T08:15:31;27.00;;;9.43;;
75220;SDS011;63802;53.232;6.570;2022-11-18T08:17:56;27.60;;;10.00;;
75220;SDS011;63802;53.232;6.570;2022-11-18T08:20:22;26.98;;;9.80;;
75220;SDS011;63802;53.232;6.570;2022-11-18T08:22:51;25.55;;;9.68;;
75220;SDS011;63802;53.232;6.570;2022-11-18T08:25:16;27.15;;;10.50;;
75220;SDS011;63802;53.232;6.570;2022-11-18T08:27:42;26.52;;;10.02;;
75220;SDS011;63802;53.232;6.570;2022-11-18T08:30:07;26.85;;;9.90;;
75220;SDS011;63802;53.232;6.570;2022-11-18T08:32:33;27.25;;;9.63;;
75220;SDS011;63802;53.232;6.570;2022-11-18T08:34:59;24.92;;;9.90;;
75220;SDS011;63802;53.232;6.570;2022-11-18T08:37:24;30.80;;;10.23;;
75220;SDS011;63802;53.232;6.570;2022-11-18T08:39:52;27.15;;;10.15;;
75220;SDS011;63802;53.232;6.570;2022-11-18T08:42:18;33.55;;;10.95;;
75220;SDS011;63802;53.232;6.570;2022-11-18T08:44:46;29.48;;;10.15;;
75220;SDS011;63802;53.232;6.570;2022-11-18T08:47:11;28.13;;;10.98;;
75220;SDS011;63802;53.232;6.570;2022-11-18T08:49:37;27.95;;;10.20;;
75220;SDS011;63802;53.232;6.570;2022-11-18T08:52:02;25.52;;;10.32;;
75220;SDS011;63802;53.232;6.570;2022-11-18T08:54:28;28.70;;;10.45;;
75220;SDS011;63802;53.232;6.570;2022-11-18T08:56:53;24.38;;;9.65;;
75220;SDS011;63802;53.232;6.570;2022-11-18T08:59:18;26.67;;;10.25;;
75220;SDS011;63802;53.232;6.570;2022-11-18T09:01:44;26.25;;;10.15;;
75220;SDS011;63802;53.232;6.570;2022-11-18T09:04:09;29.10;;;9.80;;
75220;SDS011;63802;53.232;6.570;2022-11-18T09:06:39;26.02;;;10.07;;
75220;SDS011;63802;53.232;6.570;2022-11-18T09:09:05;26.85;;;10.45;;
75220;SDS011;63802;53.232;6.570;2022-11-18T09:11:31;25.25;;;9.75;;
75220;SDS011;63802;53.232;6.570;2022-11-18T09:13:58;27.10;;;10.57;;
75220;SDS011;63802;53.232;6.570;2022-11-18T09:16:24;28.67;;;10.75;;
75220;SDS011;63802;53.232;6.570;2022-11-18T09:18:51;28.17;;;10.85;;
75220;SDS011;63802;53.232;6.570;2022-11-18T09:21:17;28.92;;;10.85;;
75220;SDS011;63802;53.232;6.570;2022-11-18T09:23:43;25.90;;;10.00;;
75220;SDS011;63802;53.232;6.570;2022-11-18T09:26:10;34.75;;;10.05;;
75220;SDS011;63802;53.232;6.570;2022-11-18T09:28:37;23.80;;;10.40;;
75220;SDS011;63802;53.232;6.570;2022-11-18T09:31:05;26.10;;;9.75;;
75220;SDS011;63802;53.232;6.570;2022-11-18T09:33:32;31.23;;;10.70;;
75220;SDS011;63802;53.232;6.570;2022-11-18T09:35:58;29.77;;;9.52;;
75220;SDS011;63802;53.232;6.570;2022-11-18T09:38:23;24.48;;;9.25;;
75220;SDS011;63802;53.232;6.570;2022-11-18T09:43:36;25.13;;;9.23;;
75220;SDS011;63802;53.232;6.570;2022-11-18T09:46:06;24.17;;;8.13;;
75220;SDS011;63802;53.232;6.570;2022-11-18T09:48:56;22.92;;;8.80;;
75220;SDS011;63802;53.232;6.570;2022-11-18T09:51:44;21.45;;;8.02;;
75220;SDS011;63802;53.232;6.570;2022-11-18T09:54:31;20.35;;;7.28;;
75220;SDS011;63802;53.232;6.570;2022-11-18T09:56:59;21.55;;;7.85;;
75220;SDS011;63802;53.232;6.570;2022-11-18T09:59:26;23.42;;;8.50;;
75220;SDS011;63802;53.232;6.570;2022-11-18T10:02:41;27.13;;;8.27;;
75220;SDS011;63802;53.232;6.570;2022-11-18T10:04:54;22.40;;;8.60;;
75220;SDS011;63802;53.232;6.570;2022-11-18T10:07:23;24.00;;;9.25;;
75220;SDS011;63802;53.232;6.570;2022-11-18T10:09:56;21.50;;;8.27;;
75220;SDS011;63802;53.232;6.570;2022-11-18T10:12:39;29.10;;;9.45;;
75220;SDS011;63802;53.232;6.570;2022-11-18T10:20:48;24.10;;;8.65;;
75220;SDS011;63802;53.232;6.570;2022-11-18T10:25:51;20.58;;;7.50;;
75220;SDS011;63802;53.232;6.570;2022-11-18T10:28:25;24.95;;;7.63;;
75220;SDS011;63802;53.232;6.570;2022-11-18T10:31:05;22.48;;;9.18;;
75220;SDS011;63802;53.232;6.570;2022-11-18T10:33:33;26.48;;;9.77;;
75220;SDS011;63802;53.232;6.570;2022-11-18T10:36:17;25.60;;;8.07;;
75220;SDS011;63802;53.232;6.570;2022-11-18T10:38:43;21.17;;;8.13;;
75220;SDS011;63802;53.232;6.570;2022-11-18T10:41:13;21.80;;;8.00;;
75220;SDS011;63802;53.232;6.570;2022-11-18T10:46:26;24.35;;;8.25;;
75220;SDS011;63802;53.232;6.570;2022-11-18T10:51:34;28.30;;;10.35;;
75220;SDS011;63802;53.232;6.570;2022-11-18T10:54:08;28.60;;;9.55;;
75220;SDS011;63802;53.232;6.570;2022-11-18T10:56:46;30.80;;;10.15;;
75220;SDS011;63802;53.232;6.570;2022-11-18T10:59:24;30.10;;;9.82;;
75220;SDS011;63802;53.232;6.570;2022-11-18T11:02:22;31.70;;;11.40;;
75220;SDS011;63802;53.232;6.570;2022-11-18T11:05:18;28.50;;;11.32;;
75220;SDS011;63802;53.232;6.570;2022-11-18T11:07:59;31.52;;;10.60;;
75220;SDS011;63802;53.232;6.570;2022-11-18T11:10:56;26.00;;;9.48;;
75220;SDS011;63802;53.232;6.570;2022-11-18T11:13:24;33.65;;;11.18;;
75220;SDS011;63802;53.232;6.570;2022-11-18T11:15:54;29.77;;;10.05;;
75220;SDS011;63802;53.232;6.570;2022-11-18T11:18:23;34.40;;;10.68;;
75220;SDS011;63802;53.232;6.570;2022-11-18T11:23:42;29.95;;;10.20;;
75220;SDS011;63802;53.232;6.570;2022-11-18T11:26:15;30.83;;;10.85;;
75220;SDS011;63802;53.232;6.570;2022-11-18T11:39:39;30.65;;;10.32;;
75220;SDS011;63802;53.232;6.570;2022-11-18T11:42:36;33.35;;;9.90;;
75220;SDS011;63802;53.232;6.570;2022-11-18T11:48:01;31.27;;;11.52;;
75220;SDS011;63802;53.232;6.570;2022-11-18T11:50:54;36.58;;;11.77;;
75220;SDS011;63802;53.232;6.570;2022-11-18T12:01:57;28.20;;;10.65;;
75220;SDS011;63802;53.232;6.570;2022-11-18T12:04:31;30.08;;;9.98;;
75220;SDS011;63802;53.232;6.570;2022-11-18T12:06:59;34.33;;;9.95;;
75220;SDS011;63802;53.232;6.570;2022-11-18T12:12:11;36.33;;;12.05;;
75220;SDS011;63802;53.232;6.570;2022-11-18T12:20:54;33.08;;;9.77;;
75220;SDS011;63802;53.232;6.570;2022-11-18T12:23:21;26.38;;;10.38;;
75220;SDS011;63802;53.232;6.570;2022-11-18T12:28:21;31.23;;;9.68;;
75220;SDS011;63802;53.232;6.570;2022-11-18T12:33:55;31.65;;;9.77;;
75220;SDS011;63802;53.232;6.570;2022-11-18T12:36:26;26.23;;;10.15;;
75220;SDS011;63802;53.232;6.570;2022-11-18T12:41:59;28.27;;;9.48;;
75220;SDS011;63802;53.232;6.570;2022-11-18T12:44:45;22.48;;;7.75;;
75220;SDS011;63802;53.232;6.570;2022-11-18T12:47:16;25.23;;;8.80;;
75220;SDS011;63802;53.232;6.570;2022-11-18T12:50:11;24.15;;;8.52;;
75220;SDS011;63802;53.232;6.570;2022-11-18T12:55:10;23.02;;;8.15;;
75220;SDS011;63802;53.232;6.570;2022-11-18T12:57:39;20.55;;;8.10;;
75220;SDS011;63802;53.232;6.570;2022-11-18T13:00:17;25.80;;;7.97;;
75220;SDS011;63802;53.232;6.570;2022-11-18T13:02:50;24.52;;;7.80;;
75220;SDS011;63802;53.232;6.570;2022-11-18T13:05:24;20.70;;;8.27;;
75220;SDS011;63802;53.232;6.570;2022-11-18T13:07:58;20.65;;;8.10;;
75220;SDS011;63802;53.232;6.570;2022-11-18T13:10:51;24.33;;;8.32;;
75220;SDS011;63802;53.232;6.570;2022-11-18T13:13:38;25.85;;;8.35;;
75220;SDS011;63802;53.232;6.570;2022-11-18T13:16:22;24.88;;;7.90;;
75220;SDS011;63802;53.232;6.570;2022-11-18T13:19:07;22.92;;;9.02;;
75220;SDS011;63802;53.232;6.570;2022-11-18T13:21:33;27.13;;;9.23;;
75220;SDS011;63802;53.232;6.570;2022-11-18T13:24:19;26.42;;;9.82;;
75220;SDS011;63802;53.232;6.570;2022-11-18T13:26:47;27.38;;;8.52;;
75220;SDS011;63802;53.232;6.570;2022-11-18T13:34:48;25.27;;;9.60;;
75220;SDS011;63802;53.232;6.570;2022-11-18T13:37:18;30.90;;;10.13;;
75220;SDS011;63802;53.232;6.570;2022-11-18T13:39:46;32.30;;;9.90;;
75220;SDS011;63802;53.232;6.570;2022-11-18T13:44:57;31.23;;;10.15;;
75220;SDS011;63802;53.232;6.570;2022-11-18T13:50:32;27.88;;;9.45;;
75220;SDS011;63802;53.232;6.570;2022-11-18T14:04:00;25.52;;;9.65;;
75220;SDS011;63802;53.232;6.570;2022-11-18T14:11:45;27.50;;;9.18;;
75220;SDS011;63802;53.232;6.570;2022-11-18T14:14:30;28.85;;;9.05;;
75220;SDS011;63802;53.232;6.570;2022-11-18T14:19:50;24.40;;;8.57;;
75220;SDS011;63802;53.232;6.570;2022-11-18T14:22:27;25.50;;;8.88;;
75220;SDS011;63802;53.232;6.570;2022-11-18T14:24:58;22.38;;;8.20;;
75220;SDS011;63802;53.232;6.570;2022-11-18T14:27:38;23.33;;;8.85;;
75220;SDS011;63802;53.232;6.570;2022-11-18T14:35:33;26.10;;;9.25;;
75220;SDS011;63802;53.232;6.570;2022-11-18T14:37:58;27.65;;;9.45;;
75220;SDS011;63802;53.232;6.570;2022-11-18T14:40:24;30.40;;;9.82;;
75220;SDS011;63802;53.232;6.570;2022-11-18T14:42:53;27.13;;;10.55;;
75220;SDS011;63802;53.232;6.570;2022-11-18T14:45:20;25.80;;;8.90;;
75220;SDS011;63802;53.232;6.570;2022-11-18T14:47:54;32.60;;;10.02;;
75220;SDS011;63802;53.232;6.570;2022-11-18T14:50:21;26.15;;;9.73;;
75220;SDS011;63802;53.232;6.570;2022-11-18T14:52:48;30.98;;;10.05;;
75220;SDS011;63802;53.232;6.570;2022-11-18T14:55:14;27.08;;;10.43;;
75220;SDS011;63802;53.232;6.570;2022-11-18T14:57:40;32.67;;;11.50;;
75220;SDS011;63802;53.232;6.570;2022-11-18T15:00:05;31.88;;;11.40;;
75220;SDS011;63802;53.232;6.570;2022-11-18T15:02:31;33.67;;;11.48;;
75220;SDS011;63802;53.232;6.570;2022-11-18T15:04:56;29.35;;;11.25;;
75220;SDS011;63802;53.232;6.570;2022-11-18T15:07:22;35.92;;;11.98;;
75220;SDS011;63802;53.232;6.570;2022-11-18T15:09:47;35.00;;;11.50;;
75220;SDS011;63802;53.232;6.570;2022-11-18T15:12:13;27.50;;;10.27;;
75220;SDS011;63802;53.232;6.570;2022-11-18T15:14:38;36.63;;;11.45;;
75220;SDS011;63802;53.232;6.570;2022-11-18T15:17:03;32.10;;;11.65;;
75220;SDS011;63802;53.232;6.570;2022-11-18T15:19:29;33.80;;;12.10;;
75220;SDS011;63802;53.232;6.570;2022-11-18T15:21:55;32.08;;;10.70;;
75220;SDS011;63802;53.232;6.570;2022-11-18T15:24:20;33.15;;;11.80;;
75220;SDS011;63802;53.232;6.570;2022-11-18T15:26:46;27.65;;;10.15;;
75220;SDS011;63802;53.232;6.570;2022-11-18T15:29:16;31.83;;;10.07;;
75220;SDS011;63802;53.232;6.570;2022-11-18T15:31:43;28.88;;;10.68;;
75220;SDS011;63802;53.232;6.570;2022-11-18T15:34:09;26.25;;;10.25;;
75220;SDS011;63802;53.232;6.570;2022-11-18T15:36:34;27.52;;;10.07;;
75220;SDS011;63802;53.232;6.570;2022-11-18T15:39:00;28.50;;;9.95;;
75220;SDS011;63802;53.232;6.570;2022-11-18T15:41:26;32.15;;;11.13;;
75220;SDS011;63802;53.232;6.570;2022-11-18T15:43:53;29.98;;;10.52;;
75220;SDS011;63802;53.232;6.570;2022-11-18T15:46:22;28.98;;;10.38;;
75220;SDS011;63802;53.232;6.570;2022-11-18T15:48:52;29.80;;;10.05;;
75220;SDS011;63802;53.232;6.570;2022-11-18T15:53:45;29.38;;;9.75;;
75220;SDS011;63802;53.232;6.570;2022-11-18T15:56:27;32.33;;;10.02;;
75220;SDS011;63802;53.232;6.570;2022-11-18T15:59:03;27.00;;;9.30;;
75220;SDS011;63802;53.232;6.570;2022-11-18T16:01:40;21.33;;;8.40;;
75220;SDS011;63802;53.232;6.570;2022-11-18T16:04:10;23.52;;;9.77;;
75220;SDS011;63802;53.232;6.570;2022-11-18T16:06:37;24.50;;;8.82;;
75220;SDS011;63802;53.232;6.570;2022-11-18T16:09:03;27.95;;;9.02;;
75220;SDS011;63802;53.232;6.570;2022-11-18T16:11:29;24.70;;;10.05;;
75220;SDS011;63802;53.232;6.570;2022-11-18T16:14:13;23.27;;;8.80;;
75220;SDS011;63802;53.232;6.570;2022-11-18T16:16:42;25.30;;;9.30;;
75220;SDS011;63802;53.232;6.570;2022-11-18T16:19:10;22.73;;;8.82;;
75220;SDS011;63802;53.232;6.570;2022-11-18T16:21:41;23.02;;;8.98;;
75220;SDS011;63802;53.232;6.570;2022-11-18T16:24:09;22.10;;;9.65;;
75220;SDS011;63802;53.232;6.570;2022-11-18T16:26:37;23.92;;;9.68;;
75220;SDS011;63802;53.232;6.570;2022-11-18T16:29:03;20.33;;;8.60;;
75220;SDS011;63802;53.232;6.570;2022-11-18T16:31:29;26.70;;;10.45;;
75220;SDS011;63802;53.232;6.570;2022-11-18T16:34:11;22.70;;;9.07;;
75220;SDS011;63802;53.232;6.570;2022-11-18T16:36:39;23.85;;;9.73;;
75220;SDS011;63802;53.232;6.570;2022-11-18T16:39:07;22.88;;;10.00;;
75220;SDS011;63802;53.232;6.570;2022-11-18T16:41:37;25.58;;;10.05;;
75220;SDS011;63802;53.232;6.570;2022-11-18T16:44:04;26.15;;;10.73;;
75220;SDS011;63802;53.232;6.570;2022-11-18T16:46:32;27.85;;;11.65;;
75220;SDS011;63802;53.232;6.570;2022-11-18T16:48:59;25.13;;;11.43;;
75220;SDS011;63802;53.232;6.570;2022-11-18T16:51:26;30.42;;;11.88;;
75220;SDS011;63802;53.232;6.570;2022-11-18T16:53:55;29.58;;;11.57;;
75220;SDS011;63802;53.232;6.570;2022-11-18T16:56:23;28.73;;;11.40;;